Time;durP1;ratioP1;P1;durP2;ratioP2;P2;SDS_P1;SDS_P2;PMS_P1;PMS_P2;Temp;Humidity;BMP_temperature;BMP_pressure;BME280_temperature;BME280_humidity;BME280_pressure;Samples;Min_cycle;Max_cycle;Signal;HPM_P1;HPM_P2
2021/08/09 00:01:31;;;;;;;12.00;3.30;;;14.50;99.90;;;;;;5109006;28;20182;-71
2021/08/09 00:03:59;;;;;;;11.80;2.80;;;14.40;99.90;;;;;;5104687;28;20183;-70
2021/08/09 00:06:27;;;;;;;7.80;2.90;;;14.40;99.90;;;;;;5100384;28;20175;-71
2021/08/09 00:08:56;;;;;;;11.93;2.90;;;14.30;99.90;;;;;;5108192;28;20419;-71
2021/08/09 00:11:24;;;;;;;10.20;2.93;;;14.40;99.90;;;;;;5108732;28;20220;-71
2021/08/09 00:13:52;;;;;;;9.23;2.60;;;14.30;99.90;;;;;;5104384;28;20179;-71
2021/08/09 00:16:22;;;;;;;9.83;2.80;;;14.30;99.90;;;;;;5119739;28;20179;-70
2021/08/09 00:18:50;;;;;;;5.80;2.87;;;14.30;99.90;;;;;;5112398;28;20202;-71
2021/08/09 00:21:21;;;;;;;4.60;2.53;;;14.40;99.90;;;;;;5107521;28;20186;-71
2021/08/09 00:23:50;;;;;;;7.90;2.53;;;14.30;99.90;;;;;;5110764;28;20191;-71
2021/08/09 00:26:20;;;;;;;6.33;2.63;;;14.30;99.90;;;;;;5109593;28;20171;-71
2021/08/09 00:28:48;;;;;;;10.83;3.07;;;14.30;99.90;;;;;;5106294;28;20191;-70
2021/08/09 00:31:16;;;;;;;10.80;2.70;;;14.30;99.90;;;;;;5112219;28;20385;-71
2021/08/09 00:33:46;;;;;;;10.50;2.67;;;14.40;99.90;;;;;;5109916;28;20237;-71
2021/08/09 00:36:14;;;;;;;8.33;3.23;;;14.30;99.90;;;;;;5109936;28;20171;-71
2021/08/09 00:38:43;;;;;;;11.10;2.63;;;14.30;99.90;;;;;;5110812;28;20196;-70
2021/08/09 00:41:11;;;;;;;7.30;2.53;;;14.20;99.90;;;;;;5105856;28;20180;-71
2021/08/09 00:43:39;;;;;;;6.93;3.03;;;14.20;99.90;;;;;;5108551;28;20175;-71
2021/08/09 00:46:09;;;;;;;8.10;3.10;;;14.20;99.90;;;;;;5108174;28;20187;-71
2021/08/09 00:48:37;;;;;;;9.10;2.87;;;14.20;99.90;;;;;;5112153;27;20179;-71
2021/08/09 00:51:09;;;;;;;6.10;2.53;;;14.10;99.90;;;;;;5107780;28;20179;-70
2021/08/09 00:53:38;;;;;;;8.27;3.23;;;14.10;99.90;;;;;;5113525;28;20403;-71
2021/08/09 00:56:07;;;;;;;8.73;2.87;;;14.20;99.90;;;;;;5111073;28;20555;-70
2021/08/09 00:58:35;;;;;;;10.50;3.10;;;14.10;99.90;;;;;;5109041;28;20199;-71
2021/08/09 01:01:03;;;;;;;11.80;2.90;;;14.10;99.90;;;;;;5106874;28;20215;-70
2021/08/09 01:03:32;;;;;;;9.00;3.27;;;14.10;99.90;;;;;;5110350;27;20174;-71
2021/08/09 01:06:00;;;;;;;9.23;3.10;;;14.10;99.90;;;;;;5112424;28;20211;-71
2021/08/09 01:08:42;;;;;;;7.53;3.53;;;14.10;99.90;;;;;;5109562;28;20167;-71
2021/08/09 01:11:17;;;;;;;7.30;3.17;;;14.10;99.90;;;;;;5108445;28;20423;-71
2021/08/09 01:13:54;;;;;;;9.23;3.30;;;14.10;99.90;;;;;;5107982;28;20175;-70
2021/08/09 01:16:27;;;;;;;17.20;3.33;;;14.10;99.90;;;;;;5111367;28;20330;-70
2021/08/09 01:19:00;;;;;;;6.70;2.80;;;14.00;99.90;;;;;;5112483;27;20219;-71
2021/08/09 01:21:33;;;;;;;8.47;2.97;;;13.90;99.90;;;;;;5115128;27;20210;-71
2021/08/09 01:24:13;;;;;;;13.03;3.20;;;13.90;99.90;;;;;;5105899;28;20267;-70
2021/08/09 01:26:48;;;;;;;7.13;3.40;;;13.90;99.90;;;;;;5110045;28;20191;-71
2021/08/09 01:29:26;;;;;;;8.53;3.57;;;13.90;99.90;;;;;;5109586;28;20305;-71
2021/08/09 01:31:55;;;;;;;13.10;3.67;;;13.90;99.90;;;;;;5114018;28;20391;-70
2021/08/09 01:34:26;;;;;;;9.93;3.47;;;13.90;99.90;;;;;;5111071;27;20172;-71
2021/08/09 01:36:58;;;;;;;13.13;3.37;;;14.00;99.90;;;;;;5111997;27;20179;-70
2021/08/09 01:39:27;;;;;;;9.03;3.20;;;14.00;99.90;;;;;;5112749;28;20211;-71
2021/08/09 01:41:56;;;;;;;9.47;3.17;;;14.00;99.90;;;;;;5105723;28;20178;-71
2021/08/09 01:44:26;;;;;;;8.53;2.80;;;14.00;99.90;;;;;;5105196;28;20170;-70
2021/08/09 01:46:55;;;;;;;12.20;3.40;;;14.00;99.90;;;;;;5111334;28;20180;-70
2021/08/09 01:49:23;;;;;;;5.63;2.77;;;14.00;99.90;;;;;;5109305;27;20206;-71
2021/08/09 01:51:52;;;;;;;9.40;3.30;;;14.00;99.90;;;;;;5111351;28;20272;-70
2021/08/09 01:54:21;;;;;;;12.30;3.33;;;14.00;99.90;;;;;;5114131;28;20365;-71
2021/08/09 01:56:49;;;;;;;14.57;3.57;;;14.00;99.90;;;;;;5108056;28;20191;-71
2021/08/09 01:59:18;;;;;;;11.47;3.40;;;14.10;99.90;;;;;;5102728;28;20376;-70
2021/08/09 02:01:50;;;;;;;8.40;2.93;;;14.10;99.90;;;;;;5110843;28;20417;-70
2021/08/09 02:04:20;;;;;;;10.53;3.80;;;14.20;99.90;;;;;;5104764;27;20330;-70
2021/08/09 02:06:49;;;;;;;6.93;2.83;;;14.20;99.90;;;;;;5111733;27;20182;-70
2021/08/09 02:09:17;;;;;;;9.03;3.37;;;14.20;99.90;;;;;;5108622;28;20171;-71
2021/08/09 02:11:52;;;;;;;10.03;3.03;;;14.20;99.90;;;;;;5106828;28;20179;-71
2021/08/09 02:14:24;;;;;;;6.73;3.33;;;14.20;99.90;;;;;;5113013;28;20185;-71
2021/08/09 02:17:01;;;;;;;6.07;2.80;;;14.20;99.90;;;;;;5101593;28;20184;-71
2021/08/09 02:19:34;;;;;;;8.37;3.20;;;14.20;99.90;;;;;;5112190;27;20493;-70
2021/08/09 02:22:09;;;;;;;10.07;3.37;;;14.20;99.90;;;;;;5115502;27;20187;-71
2021/08/09 02:24:44;;;;;;;11.63;3.70;;;14.20;99.90;;;;;;5126710;27;20220;-71
2021/08/09 02:27:16;;;;;;;9.50;3.50;;;14.30;99.90;;;;;;5101490;28;20214;-70
2021/08/09 02:29:49;;;;;;;13.03;3.73;;;14.40;99.90;;;;;;5124818;27;20175;-71
2021/08/09 02:32:25;;;;;;;3.97;2.97;;;14.30;99.90;;;;;;5124536;27;20194;-70
2021/08/09 02:34:54;;;;;;;8.77;3.40;;;14.40;99.90;;;;;;5108819;27;20171;-69
2021/08/09 02:37:23;;;;;;;11.87;3.60;;;14.40;99.90;;;;;;5110006;28;20409;-71
2021/08/09 02:39:51;;;;;;;9.40;3.50;;;14.50;99.90;;;;;;5113965;28;20240;-70
2021/08/09 02:42:20;;;;;;;12.53;3.73;;;14.50;99.90;;;;;;5112264;28;20199;-70
2021/08/09 02:44:49;;;;;;;5.73;2.83;;;14.50;99.90;;;;;;5110574;28;20186;-70
2021/08/09 02:47:21;;;;;;;7.40;3.30;;;14.50;99.90;;;;;;5111712;27;20429;-71
2021/08/09 02:49:49;;;;;;;11.53;3.60;;;14.50;99.90;;;;;;5111371;28;20179;-68
2021/08/09 02:52:20;;;;;;;11.50;3.50;;;14.50;99.90;;;;;;5102009;28;20183;-68
2021/08/09 02:54:49;;;;;;;8.33;3.23;;;14.50;99.90;;;;;;5109182;28;20181;-69
2021/08/09 02:57:19;;;;;;;10.33;3.60;;;14.50;99.90;;;;;;5104287;28;20257;-68
2021/08/09 02:59:47;;;;;;;3.43;3.10;;;14.50;99.90;;;;;;5112495;28;20218;-68
2021/08/09 03:02:17;;;;;;;7.07;3.30;;;14.50;99.90;;;;;;5113854;28;20476;-68
2021/08/09 03:04:47;;;;;;;6.87;3.23;;;14.50;99.90;;;;;;5114198;27;20189;-68
2021/08/09 03:07:16;;;;;;;7.23;3.40;;;14.50;99.90;;;;;;5107564;27;20663;-68
2021/08/09 03:09:45;;;;;;;5.60;3.27;;;14.50;99.90;;;;;;5106712;28;20179;-68
2021/08/09 03:12:16;;;;;;;8.70;3.30;;;14.60;99.90;;;;;;5100496;28;20187;-68
2021/08/09 03:14:49;;;;;;;7.33;3.10;;;14.50;99.90;;;;;;5107217;27;20427;-68
2021/08/09 03:17:17;;;;;;;5.47;3.03;;;14.50;99.90;;;;;;5104203;28;20202;-68
2021/08/09 03:19:47;;;;;;;9.07;3.10;;;14.50;99.90;;;;;;5107108;28;20212;-68
2021/08/09 03:22:15;;;;;;;10.40;3.40;;;14.50;99.90;;;;;;5112151;27;20429;-68
2021/08/09 03:24:44;;;;;;;9.50;3.60;;;14.50;99.90;;;;;;5106530;28;20254;-67
2021/08/09 03:27:12;;;;;;;6.03;3.03;;;14.40;99.90;;;;;;5109900;28;20179;-68
2021/08/09 03:29:40;;;;;;;4.40;3.00;;;14.50;99.90;;;;;;5103885;28;20179;-68
2021/08/09 03:32:08;;;;;;;8.57;3.07;;;14.50;99.90;;;;;;5104108;28;20180;-68
2021/08/09 03:34:37;;;;;;;8.93;3.37;;;14.40;99.90;;;;;;5120041;27;20528;-68
2021/08/09 03:37:06;;;;;;;7.40;3.13;;;14.40;99.90;;;;;;5108432;28;20183;-68
2021/08/09 03:39:35;;;;;;;4.50;2.97;;;14.40;99.90;;;;;;5107937;28;20225;-68
2021/08/09 03:42:03;;;;;;;6.10;3.23;;;14.40;99.90;;;;;;5106296;28;20335;-68
2021/08/09 03:44:32;;;;;;;5.37;2.80;;;14.40;99.90;;;;;;5105394;28;20198;-68
2021/08/09 03:47:00;;;;;;;10.70;2.97;;;14.40;99.90;;;;;;5102858;28;20460;-68
2021/08/09 03:49:28;;;;;;;4.87;2.67;;;14.60;99.90;;;;;;5109202;28;20175;-70
2021/08/09 03:51:56;;;;;;;7.83;3.27;;;14.70;99.90;;;;;;5104761;28;20175;-68
2021/08/09 03:54:28;;;;;;;6.17;3.10;;;14.70;99.90;;;;;;5105130;28;20176;-68
2021/08/09 03:56:57;;;;;;;5.33;2.60;;;14.70;99.90;;;;;;5105381;28;20419;-68
2021/08/09 03:59:25;;;;;;;4.57;2.87;;;14.70;99.90;;;;;;5104148;28;20470;-68
2021/08/09 04:01:53;;;;;;;5.17;3.00;;;14.70;99.90;;;;;;5130444;27;20191;-68
2021/08/09 04:04:21;;;;;;;3.50;2.90;;;14.70;99.90;;;;;;5106066;28;20307;-68
2021/08/09 04:06:50;;;;;;;5.17;2.83;;;14.80;99.90;;;;;;5106963;28;20182;-68
2021/08/09 04:09:19;;;;;;;5.33;3.00;;;14.80;99.90;;;;;;5103223;28;20206;-68
2021/08/09 04:11:48;;;;;;;9.30;3.00;;;14.70;99.90;;;;;;5110830;28;20187;-68
2021/08/09 04:14:21;;;;;;;5.67;3.00;;;14.70;99.90;;;;;;5108328;28;20725;-68
2021/08/09 04:16:50;;;;;;;4.00;2.97;;;14.60;99.90;;;;;;5122823;28;20225;-68
2021/08/09 04:19:18;;;;;;;4.70;2.93;;;14.60;99.90;;;;;;5103920;28;21358;-68
2021/08/09 04:21:47;;;;;;;7.67;3.13;;;14.50;99.90;;;;;;5108029;28;20179;-68
2021/08/09 04:24:28;;;;;;;5.37;2.70;;;14.50;99.90;;;;;;5118277;27;20171;-68
2021/08/09 04:26:58;;;;;;;3.10;2.70;;;14.40;99.90;;;;;;5116767;27;20186;-68
2021/08/09 04:29:27;;;;;;;4.67;2.70;;;14.40;99.90;;;;;;5106155;28;20449;-68
2021/08/09 04:31:55;;;;;;;5.00;2.77;;;14.30;99.90;;;;;;5108897;28;20180;-68
2021/08/09 04:34:23;;;;;;;4.73;2.90;;;14.30;99.90;;;;;;5104150;28;20461;-68
2021/08/09 04:36:52;;;;;;;5.30;3.17;;;14.30;99.90;;;;;;5109128;28;20176;-68
2021/08/09 04:39:20;;;;;;;3.00;2.70;;;14.20;99.90;;;;;;5113224;28;20198;-68
2021/08/09 04:41:48;;;;;;;5.47;2.77;;;14.30;99.90;;;;;;5108517;28;20423;-71
2021/08/09 04:44:37;;;;;;;2.93;2.70;;;14.30;99.90;;;;;;5108244;28;20322;-70
2021/08/09 04:47:05;;;;;;;6.70;2.70;;;14.30;99.90;;;;;;5104295;28;20183;-71
2021/08/09 04:49:34;;;;;;;4.60;2.93;;;14.30;99.90;;;;;;5107143;28;20192;-71
2021/08/09 04:52:02;;;;;;;4.77;2.90;;;14.20;99.90;;;;;;5114059;28;20179;-70
2021/08/09 04:54:30;;;;;;;4.30;2.90;;;14.20;99.90;;;;;;5107190;27;20191;-70
2021/08/09 04:56:59;;;;;;;3.40;2.73;;;14.10;99.90;;;;;;5108575;28;20427;-70
2021/08/09 04:59:28;;;;;;;4.50;2.90;;;14.10;99.90;;;;;;5106679;28;20386;-70
2021/08/09 05:01:57;;;;;;;4.33;2.83;;;14.10;99.90;;;;;;5116417;28;20632;-70
2021/08/09 05:04:26;;;;;;;6.03;3.37;;;14.10;99.90;;;;;;5110778;28;20191;-70
2021/08/09 05:06:54;;;;;;;3.10;2.80;;;14.10;99.90;;;;;;5107502;28;20179;-68
2021/08/09 05:09:23;;;;;;;4.20;2.90;;;14.10;99.90;;;;;;5108829;27;20183;-71
2021/08/09 05:11:51;;;;;;;3.73;2.87;;;14.10;99.90;;;;;;5103597;28;20186;-71
2021/08/09 05:14:19;;;;;;;8.03;3.27;;;14.20;99.90;;;;;;5110316;28;20179;-71
2021/08/09 05:16:47;;;;;;;4.97;3.30;;;14.20;99.90;;;;;;5113615;28;20209;-71
2021/08/09 05:19:17;;;;;;;5.23;3.20;;;14.20;99.90;;;;;;5106083;28;20323;-71
2021/08/09 05:21:45;;;;;;;3.30;3.10;;;14.20;99.90;;;;;;5111835;28;20181;-71
2021/08/09 05:24:16;;;;;;;7.33;3.80;;;14.20;99.90;;;;;;5107326;27;20251;-71
2021/08/09 05:26:47;;;;;;;7.50;3.30;;;14.30;99.90;;;;;;5113615;28;20194;-71
2021/08/09 05:29:15;;;;;;;5.17;3.27;;;14.30;99.90;;;;;;5110110;28;20174;-71
2021/08/09 05:31:45;;;;;;;3.50;3.20;;;14.30;99.90;;;;;;5109137;28;20224;-68
2021/08/09 05:34:14;;;;;;;5.03;3.20;;;14.40;99.90;;;;;;5110381;28;20179;-68
2021/08/09 05:36:44;;;;;;;7.23;3.40;;;14.50;99.90;;;;;;5109498;28;20185;-68
2021/08/09 05:39:12;;;;;;;4.87;3.07;;;14.60;99.90;;;;;;5104391;28;20186;-68
2021/08/09 05:41:41;;;;;;;3.47;3.13;;;14.70;99.90;;;;;;5109485;28;20355;-68
2021/08/09 05:44:09;;;;;;;3.93;3.13;;;14.80;99.90;;;;;;5106875;28;20187;-68
2021/08/09 05:46:38;;;;;;;3.93;3.40;;;15.00;99.90;;;;;;5108595;28;20184;-68
2021/08/09 05:49:06;;;;;;;5.10;3.00;;;15.10;99.90;;;;;;5107659;28;20255;-68
2021/08/09 05:51:39;;;;;;;6.37;2.80;;;15.30;99.90;;;;;;5104868;28;20188;-68
2021/08/09 05:54:09;;;;;;;5.00;2.70;;;15.30;99.90;;;;;;5103198;28;20176;-68
2021/08/09 05:56:37;;;;;;;4.27;2.90;;;15.40;99.90;;;;;;5114606;28;20324;-67
2021/08/09 05:59:05;;;;;;;4.47;2.40;;;15.40;99.90;;;;;;5105372;27;20179;-68
2021/08/09 06:01:35;;;;;;;4.80;2.77;;;15.50;99.90;;;;;;5113022;28;20224;-68
2021/08/09 06:04:04;;;;;;;7.07;2.90;;;15.50;99.90;;;;;;5116305;28;20174;-68
2021/08/09 06:06:32;;;;;;;2.60;2.43;;;15.40;99.90;;;;;;5111277;28;20180;-68
2021/08/09 06:09:00;;;;;;;3.07;2.77;;;15.30;99.90;;;;;;5113669;27;20442;-68
2021/08/09 06:11:36;;;;;;;9.77;3.00;;;15.30;99.90;;;;;;5108989;28;20261;-68
2021/08/09 06:14:05;;;;;;;8.60;3.50;;;15.30;99.90;;;;;;5103478;28;20187;-68
2021/08/09 06:16:33;;;;;;;2.80;2.50;;;15.40;99.90;;;;;;5110246;28;20195;-68
2021/08/09 06:19:02;;;;;;;3.20;2.90;;;15.40;99.90;;;;;;5108216;28;20471;-68
2021/08/09 06:21:30;;;;;;;4.07;2.73;;;15.50;99.90;;;;;;5110623;27;20290;-68
2021/08/09 06:23:59;;;;;;;4.33;2.67;;;15.70;99.90;;;;;;5090108;28;20203;-66
2021/08/09 06:26:30;;;;;;;5.00;2.73;;;15.90;99.90;;;;;;5106137;28;20186;-68
2021/08/09 06:29:00;;;;;;;4.17;2.70;;;16.10;99.90;;;;;;5104637;28;20350;-66
2021/08/09 06:31:31;;;;;;;4.37;2.60;;;16.20;99.90;;;;;;5108675;28;20186;-68
2021/08/09 06:34:11;;;;;;;3.80;2.60;;;16.40;99.90;;;;;;5106400;28;20333;-68
2021/08/09 06:36:41;;;;;;;3.53;2.50;;;16.40;99.90;;;;;;5108704;28;20255;-68
2021/08/09 06:39:10;;;;;;;3.90;2.33;;;16.40;99.90;;;;;;5108946;28;20171;-68
2021/08/09 06:41:42;;;;;;;5.70;2.70;;;16.50;99.90;;;;;;5107747;28;20212;-68
2021/08/09 06:44:11;;;;;;;3.83;2.20;;;16.50;99.90;;;;;;5109855;28;20191;-68
2021/08/09 06:46:41;;;;;;;3.23;2.33;;;16.50;99.90;;;;;;5109555;28;20178;-69
2021/08/09 06:49:09;;;;;;;6.23;2.50;;;16.60;99.90;;;;;;5106117;28;20167;-68
2021/08/09 06:51:38;;;;;;;3.30;2.40;;;16.80;99.90;;;;;;5115457;27;20262;-68
2021/08/09 06:54:07;;;;;;;3.00;2.70;;;17.00;99.90;;;;;;5098692;28;20202;-68
2021/08/09 06:56:35;;;;;;;3.63;2.37;;;17.20;99.90;;;;;;5109765;28;20184;-68
2021/08/09 06:59:12;;;;;;;2.60;2.37;;;17.30;99.90;;;;;;5107609;28;20176;-67
2021/08/09 07:01:45;;;;;;;6.63;2.40;;;17.30;99.90;;;;;;5112100;27;20252;-68
2021/08/09 07:04:13;;;;;;;2.93;2.30;;;17.20;99.90;;;;;;5108701;28;20178;-71
2021/08/09 07:06:44;;;;;;;3.10;2.37;;;17.10;99.90;;;;;;5106040;28;20242;-71
2021/08/09 07:09:13;;;;;;;4.60;2.33;;;16.90;99.90;;;;;;5108502;27;20208;-71
2021/08/09 07:11:42;;;;;;;4.50;2.37;;;16.90;99.90;;;;;;5105099;28;20163;-68
2021/08/09 07:14:12;;;;;;;4.20;2.17;;;16.90;99.90;;;;;;5105269;28;20263;-68
2021/08/09 07:16:43;;;;;;;5.83;2.40;;;17.00;99.90;;;;;;5107529;27;20187;-68
2021/08/09 07:19:12;;;;;;;6.90;2.30;;;17.20;99.90;;;;;;5106963;28;20191;-68
2021/08/09 07:21:41;;;;;;;2.50;1.90;;;17.30;99.90;;;;;;5108688;27;20241;-68
2021/08/09 07:24:10;;;;;;;7.27;2.13;;;17.40;99.90;;;;;;5101963;28;20265;-68
2021/08/09 07:26:38;;;;;;;6.27;2.60;;;17.30;99.90;;;;;;5101438;28;20580;-68
2021/08/09 07:29:07;;;;;;;2.20;2.00;;;17.40;99.90;;;;;;5101895;28;20198;-68
2021/08/09 07:31:36;;;;;;;3.87;2.40;;;17.40;99.90;;;;;;5117421;27;20245;-69
2021/08/09 07:34:05;;;;;;;5.27;2.47;;;17.30;99.90;;;;;;5114379;28;20299;-68
2021/08/09 07:36:33;;;;;;;6.90;2.30;;;17.20;99.90;;;;;;5120287;28;20361;-69
2021/08/09 07:39:02;;;;;;;5.17;2.30;;;17.20;99.90;;;;;;5102461;28;20234;-69
2021/08/09 07:41:31;;;;;;;4.63;2.47;;;17.10;99.90;;;;;;5106444;28;20568;-69
2021/08/09 07:44:00;;;;;;;2.80;2.23;;;17.00;99.90;;;;;;5108055;28;20171;-69
2021/08/09 07:46:28;;;;;;;3.80;2.60;;;17.00;99.90;;;;;;5108863;28;20183;-69
2021/08/09 07:48:58;;;;;;;5.77;2.23;;;17.00;99.90;;;;;;5108629;28;20290;-68
2021/08/09 07:51:27;;;;;;;2.90;2.10;;;16.80;99.90;;;;;;5113429;28;20184;-68
2021/08/09 07:53:55;;;;;;;4.93;2.20;;;16.80;99.90;;;;;;5121121;27;20197;-68
2021/08/09 07:56:24;;;;;;;4.30;2.20;;;16.80;99.90;;;;;;5114608;28;20175;-68
2021/08/09 07:58:52;;;;;;;7.57;2.50;;;16.80;99.90;;;;;;5112409;28;20175;-68
2021/08/09 08:01:20;;;;;;;4.30;2.33;;;16.70;99.90;;;;;;5109927;27;20234;-68
2021/08/09 08:03:49;;;;;;;3.80;2.03;;;16.60;99.90;;;;;;5107894;28;20388;-69
2021/08/09 08:06:19;;;;;;;4.63;2.50;;;16.70;99.90;;;;;;5112160;28;20260;-68
2021/08/09 08:08:47;;;;;;;4.23;2.20;;;16.60;99.90;;;;;;5112899;28;20220;-68
2021/08/09 08:11:16;;;;;;;7.00;2.23;;;16.60;99.90;;;;;;5118049;28;20435;-66
2021/08/09 08:13:44;;;;;;;6.37;2.30;;;16.60;99.90;;;;;;5112319;28;20403;-68
2021/08/09 08:16:13;;;;;;;3.43;2.33;;;16.70;99.90;;;;;;5105632;28;20229;-68
2021/08/09 08:18:42;;;;;;;6.27;2.50;;;16.60;99.90;;;;;;5114140;28;20187;-69
2021/08/09 08:21:10;;;;;;;2.50;2.30;;;16.80;99.90;;;;;;5113382;27;20472;-68
2021/08/09 08:23:41;;;;;;;5.27;2.23;;;16.90;99.90;;;;;;5107433;28;20308;-68
2021/08/09 08:26:09;;;;;;;3.03;2.47;;;17.00;99.90;;;;;;5114099;27;20176;-68
2021/08/09 08:28:38;;;;;;;5.53;2.00;;;17.10;99.90;;;;;;5113276;27;20249;-68
2021/08/09 08:31:07;;;;;;;4.93;2.20;;;17.10;99.90;;;;;;5128688;27;20330;-67
2021/08/09 08:33:36;;;;;;;5.90;2.33;;;17.10;99.90;;;;;;5112131;28;20180;-68
2021/08/09 08:36:04;;;;;;;5.40;2.30;;;17.10;99.90;;;;;;5108392;28;20378;-66
2021/08/09 08:38:34;;;;;;;4.43;2.37;;;17.10;99.90;;;;;;5104450;28;20415;-69
2021/08/09 08:41:06;;;;;;;6.07;2.30;;;17.20;99.90;;;;;;5110762;28;20170;-68
2021/08/09 08:43:35;;;;;;;6.27;2.50;;;17.10;99.90;;;;;;5110706;27;20202;-68
2021/08/09 08:46:06;;;;;;;8.67;2.50;;;17.00;99.90;;;;;;5110572;28;20186;-68
2021/08/09 08:48:37;;;;;;;5.30;2.47;;;17.00;99.90;;;;;;5112864;28;20226;-68
2021/08/09 08:51:22;;;;;;;2.90;2.07;;;17.00;99.90;;;;;;5109454;28;20513;-68
2021/08/09 08:53:51;;;;;;;2.23;2.00;;;16.90;99.90;;;;;;5115283;27;20550;-68
2021/08/09 08:56:23;;;;;;;4.93;2.10;;;16.90;99.90;;;;;;5110795;28;20316;-68
2021/08/09 08:58:53;;;;;;;4.77;2.27;;;16.90;99.90;;;;;;5114299;27;20435;-68
2021/08/09 09:01:37;;;;;;;6.23;2.47;;;17.00;99.90;;;;;;5115504;27;20229;-69
2021/08/09 09:04:27;;;;;;;5.53;2.43;;;17.20;99.90;;;;;;5127531;27;20180;-69
2021/08/09 09:07:01;;;;;;;3.93;2.70;;;17.30;99.90;;;;;;5114707;27;20184;-68
2021/08/09 09:09:31;;;;;;;2.73;2.13;;;17.50;99.90;;;;;;5122655;28;20167;-69
2021/08/09 09:12:13;;;;;;;4.00;2.10;;;17.80;99.90;;;;;;5109395;28;20426;-69
2021/08/09 09:14:42;;;;;;;6.20;2.60;;;18.20;99.90;;;;;;5114948;27;20199;-69
2021/08/09 09:17:11;;;;;;;5.17;2.30;;;18.60;99.90;;;;;;5116724;27;20170;-69
2021/08/09 09:19:43;;;;;;;3.03;2.23;;;18.70;99.90;;;;;;5103394;28;20261;-69
2021/08/09 09:22:22;;;;;;;4.17;2.17;;;18.70;99.90;;;;;;5105796;28;20195;-71
2021/08/09 09:24:52;;;;;;;4.03;2.43;;;18.60;99.90;;;;;;5110464;27;20175;-71
2021/08/09 09:27:30;;;;;;;2.87;2.07;;;18.50;99.90;;;;;;5121761;27;20167;-70
2021/08/09 09:29:59;;;;;;;2.17;2.03;;;18.30;99.90;;;;;;5119105;27;20194;-70
2021/08/09 09:32:27;;;;;;;4.00;2.07;;;18.20;99.90;;;;;;5123604;27;20175;-70
2021/08/09 09:34:57;;;;;;;4.80;2.20;;;18.30;99.90;;;;;;5138102;27;20174;-71
2021/08/09 09:37:27;;;;;;;2.27;1.97;;;18.30;99.90;;;;;;5118766;27;20206;-70
2021/08/09 09:40:07;;;;;;;3.50;2.23;;;18.30;99.90;;;;;;5102507;28;20383;-71
2021/08/09 09:42:38;;;;;;;4.50;2.30;;;18.30;99.90;;;;;;5104597;28;20218;-71
2021/08/09 09:45:22;;;;;;;5.17;2.20;;;18.40;99.90;;;;;;5104313;27;20295;-71
2021/08/09 09:48:02;;;;;;;3.63;1.83;;;18.90;99.90;;;;;;5104495;28;20188;-70
2021/08/09 09:50:32;;;;;;;5.03;1.90;;;19.90;99.90;;;;;;5131471;27;20189;-71
2021/08/09 09:53:19;;;;;;;4.17;2.30;;;20.60;99.90;;;;;;5106174;27;20164;-71
2021/08/09 09:55:50;;;;;;;5.67;2.20;;;20.90;99.90;;;;;;5110093;28;20509;-71
2021/08/09 09:58:20;;;;;;;3.83;2.20;;;20.40;99.90;;;;;;5103640;28;20187;-70
2021/08/09 10:00:50;;;;;;;4.80;2.10;;;19.90;99.90;;;;;;5113037;27;20236;-71
2021/08/09 10:03:20;;;;;;;5.27;2.20;;;19.80;99.90;;;;;;5108730;28;20237;-71
2021/08/09 10:05:49;;;;;;;2.73;2.30;;;19.90;99.90;;;;;;5111064;27;20246;-71
2021/08/09 10:08:19;;;;;;;3.97;2.40;;;19.80;99.90;;;;;;5109573;28;20188;-71
2021/08/09 10:10:48;;;;;;;6.13;2.30;;;19.90;99.90;;;;;;5113207;28;20249;-71
2021/08/09 10:13:20;;;;;;;2.67;2.13;;;20.10;99.90;;;;;;5106593;28;20341;-71
2021/08/09 10:15:52;;;;;;;4.63;2.47;;;20.30;99.90;;;;;;5100714;28;20216;-72
2021/08/09 10:18:24;;;;;;;5.63;2.80;;;20.50;99.90;;;;;;5106621;28;20183;-68
2021/08/09 10:20:54;;;;;;;2.30;2.20;;;21.10;99.90;;;;;;5118795;27;20173;-69
2021/08/09 10:23:46;;;;;;;2.60;2.23;;;21.70;99.90;;;;;;5106800;28;20199;-69
2021/08/09 10:26:15;;;;;;;3.13;2.13;;;21.50;99.90;;;;;;5109303;28;20333;-69
2021/08/09 10:29:08;;;;;;;4.00;2.40;;;21.80;99.90;;;;;;5103732;28;20237;-69
2021/08/09 10:31:39;;;;;;;4.77;2.10;;;21.80;99.90;;;;;;5113478;28;20188;-69
2021/08/09 10:34:09;;;;;;;2.03;1.87;;;22.60;99.90;;;;;;5106201;28;20191;-70
2021/08/09 10:37:12;;;;;;;2.80;2.20;;;22.50;99.90;;;;;;5105537;28;20323;-69
2021/08/09 10:39:53;;;;;;;5.40;2.40;;;22.50;99.90;;;;;;5123232;27;20179;-69
2021/08/09 10:42:33;;;;;;;5.03;2.30;;;22.00;99.90;;;;;;5099932;28;20195;-69
2021/08/09 10:45:05;;;;;;;3.37;2.33;;;21.60;99.90;;;;;;5105019;28;20174;-69
2021/08/09 10:47:54;;;;;;;3.87;2.57;;;21.20;99.90;;;;;;5101914;28;20181;-69
2021/08/09 10:50:49;;;;;;;4.23;2.93;;;20.50;99.90;;;;;;5103665;28;20220;-68
2021/08/09 10:53:43;;;;;;;4.97;2.83;;;20.60;99.90;;;;;;5114694;28;20476;-69
2021/08/09 10:56:44;;;;;;;2.67;2.47;;;21.30;99.90;;;;;;5101487;28;20472;-68
2021/08/09 10:59:43;;;;;;;3.03;2.70;;;21.60;99.90;;;;;;5118122;27;20172;-69
2021/08/09 11:02:18;;;;;;;2.47;2.20;;;22.20;99.90;;;;;;5100830;28;20182;-68
2021/08/09 11:05:20;;;;;;;3.63;2.10;;;22.10;99.90;;;;;;5103882;28;20206;-69
2021/08/09 11:08:32;;;;;;;2.43;2.10;;;22.20;99.90;;;;;;5086392;28;20188;-69
2021/08/09 11:11:04;;;;;;;3.53;2.40;;;22.40;99.90;;;;;;5118596;27;20434;-68
2021/08/09 11:14:11;;;;;;;2.53;2.30;;;22.90;99.90;;;;;;5109769;27;20416;-69
2021/08/09 11:16:40;;;;;;;4.73;2.30;;;23.40;99.90;;;;;;5105201;27;20208;-69
2021/08/09 11:19:21;;;;;;;3.93;2.13;;;23.90;99.90;;;;;;5106983;28;20522;-69
2021/08/09 11:21:53;;;;;;;2.20;1.97;;;24.10;99.90;;;;;;5112046;28;20219;-69
2021/08/09 11:24:32;;;;;;;2.00;1.90;;;24.20;99.90;;;;;;5099942;28;20217;-69
2021/08/09 11:27:06;;;;;;;2.43;2.13;;;23.60;99.90;;;;;;5105678;28;20183;-70
2021/08/09 11:29:56;;;;;;;3.57;2.10;;;23.00;99.90;;;;;;5105761;28;20364;-70
2021/08/09 11:32:39;;;;;;;3.60;2.30;;;22.90;99.90;;;;;;5115284;28;20171;-69
2021/08/09 11:35:11;;;;;;;3.03;2.23;;;22.80;99.90;;;;;;5104122;28;20180;-69
2021/08/09 11:37:58;;;;;;;4.20;2.10;;;22.50;99.90;;;;;;5101516;28;20199;-69
2021/08/09 11:40:40;;;;;;;3.00;2.50;;;21.90;99.90;;;;;;5102188;28;20226;-68
2021/08/09 11:43:10;;;;;;;2.60;2.33;;;21.40;99.90;;;;;;5111002;28;20429;-68
2021/08/09 11:45:38;;;;;;;2.40;2.20;;;21.10;99.90;;;;;;5111007;27;20262;-68
2021/08/09 11:48:08;;;;;;;4.33;2.50;;;20.90;99.90;;;;;;5105400;28;20230;-69
2021/08/09 11:50:41;;;;;;;5.00;2.77;;;21.00;99.90;;;;;;5110406;28;20387;-69
2021/08/09 11:53:10;;;;;;;3.83;2.57;;;21.40;99.90;;;;;;5117635;28;20485;-69
2021/08/09 11:55:39;;;;;;;2.77;2.20;;;21.50;99.90;;;;;;5114758;28;20439;-69
2021/08/09 11:58:07;;;;;;;3.87;2.43;;;21.30;99.90;;;;;;5106281;28;21205;-69
2021/08/09 12:00:43;;;;;;;3.37;2.57;;;21.00;99.90;;;;;;5105477;28;20226;-68
2021/08/09 12:03:18;;;;;;;4.17;2.50;;;20.70;99.90;;;;;;5106403;28;20205;-68
2021/08/09 12:05:48;;;;;;;4.23;2.60;;;20.60;99.90;;;;;;5110079;28;20314;-68
2021/08/09 12:08:17;;;;;;;2.83;2.50;;;20.30;99.90;;;;;;5111883;28;20194;-68
2021/08/09 12:10:46;;;;;;;4.60;2.40;;;20.00;99.90;;;;;;5108085;28;20183;-68
2021/08/09 12:13:24;;;;;;;3.93;2.63;;;19.80;99.90;;;;;;5106076;28;20175;-67
2021/08/09 12:16:15;;;;;;;4.77;3.10;;;19.60;99.90;;;;;;5100871;28;20316;-69
2021/08/09 12:18:55;;;;;;;1.83;1.67;;;19.10;99.90;;;;;;5120429;27;20184;-69
2021/08/09 12:21:34;;;;;;;1.80;1.70;;;18.10;99.90;;;;;;5108848;28;20185;-67
2021/08/09 12:24:03;;;;;;;1.90;1.50;;;17.20;99.90;;;;;;5105934;28;20211;-70
2021/08/09 12:26:35;;;;;;;4.80;1.63;;;16.70;99.90;;;;;;5103372;28;20202;-69
2021/08/09 12:29:05;;;;;;;1.73;1.60;;;16.60;99.90;;;;;;5106231;28;20180;-69
2021/08/09 12:31:45;;;;;;;1.50;1.50;;;16.60;99.90;;;;;;5113626;28;20465;-69
2021/08/09 12:34:18;;;;;;;1.50;1.40;;;16.60;99.90;;;;;;5103076;28;20255;-69
2021/08/09 12:36:51;;;;;;;1.37;1.37;;;16.70;99.90;;;;;;5104469;28;20418;-69
2021/08/09 12:39:31;;;;;;;1.60;1.50;;;16.80;99.90;;;;;;5103959;28;20211;-69
2021/08/09 12:42:12;;;;;;;1.80;1.70;;;16.90;99.90;;;;;;5116373;27;20431;-69
2021/08/09 12:44:41;;;;;;;2.40;1.53;;;17.00;99.90;;;;;;5115585;28;20288;-68
2021/08/09 12:47:13;;;;;;;1.50;1.40;;;17.20;99.90;;;;;;5112217;28;20244;-70
2021/08/09 12:49:43;;;;;;;1.50;1.50;;;17.60;99.90;;;;;;5107548;28;20169;-69
2021/08/09 12:52:13;;;;;;;1.60;1.60;;;18.10;99.90;;;;;;5088977;27;20179;-70
2021/08/09 12:54:44;;;;;;;2.23;1.60;;;18.40;99.90;;;;;;5112733;27;20182;-68
2021/08/09 12:57:13;;;;;;;2.40;2.20;;;18.70;99.90;;;;;;5110359;27;20183;-69
2021/08/09 12:59:42;;;;;;;1.90;1.90;;;18.80;99.90;;;;;;5109846;28;20219;-71
2021/08/09 13:02:11;;;;;;;2.47;2.20;;;18.90;99.90;;;;;;5119833;27;20430;-71
2021/08/09 13:04:40;;;;;;;2.63;2.47;;;19.10;99.90;;;;;;5107377;27;20211;-71
2021/08/09 13:07:16;;;;;;;2.43;2.23;;;19.30;99.90;;;;;;5114005;28;20173;-71
2021/08/09 13:09:52;;;;;;;2.73;2.47;;;19.30;99.90;;;;;;5110022;27;20206;-70